createdAt,value
2017-06-10T00:00:37.109Z,16.40
2017-06-10T00:03:03.387Z,16.30
2017-06-10T00:05:29.646Z,16.30
2017-06-10T00:07:56.153Z,16.30
2017-06-10T00:10:22.421Z,16.30
2017-06-10T00:12:48.709Z,16.20
2017-06-10T00:15:14.995Z,16.20
2017-06-10T00:17:41.245Z,16.20
2017-06-10T00:20:07.578Z,16.00
2017-06-10T00:22:33.844Z,16.10
2017-06-10T00:25:00.119Z,16.20
2017-06-10T00:27:26.363Z,16.10
2017-06-10T00:29:52.662Z,16.10
2017-06-10T00:32:19.054Z,16.10
2017-06-10T00:34:45.664Z,16.00
2017-06-10T00:37:11.965Z,16.00
2017-06-10T00:39:38.200Z,16.00
2017-06-10T00:42:04.896Z,15.90
2017-06-10T00:44:31.156Z,16.00
2017-06-10T00:46:57.417Z,15.90
2017-06-10T00:49:23.696Z,15.90
2017-06-10T00:51:49.950Z,15.80
2017-06-10T00:54:16.229Z,15.80
2017-06-10T00:56:42.473Z,15.80
2017-06-10T00:59:08.756Z,15.80
2017-06-10T01:01:35.040Z,15.80
2017-06-10T01:04:01.293Z,15.80
2017-06-10T01:06:27.575Z,15.80
2017-06-10T01:08:54.352Z,15.70
2017-06-10T01:11:20.601Z,15.70
2017-06-10T01:13:46.850Z,15.60
2017-06-10T01:16:13.497Z,15.60
2017-06-10T01:18:39.747Z,15.60
2017-06-10T01:21:06.080Z,15.40
2017-06-10T01:23:32.720Z,15.50
2017-06-10T01:25:59.551Z,15.40
2017-06-10T01:28:26.188Z,15.40
2017-06-10T01:30:52.817Z,15.30
2017-06-10T01:33:19.131Z,15.30
2017-06-10T01:35:45.411Z,15.30
2017-06-10T01:38:11.691Z,15.30
2017-06-10T01:40:38.148Z,15.30
2017-06-10T01:43:04.808Z,15.30
2017-06-10T01:45:31.104Z,15.20
2017-06-10T01:47:57.377Z,15.30
2017-06-10T01:50:23.676Z,15.30
2017-06-10T01:52:50.361Z,15.30
2017-06-10T01:55:16.660Z,15.30
2017-06-10T01:57:42.917Z,15.30
2017-06-10T02:00:09.172Z,15.30
2017-06-10T02:02:35.437Z,15.30
2017-06-10T02:05:02.070Z,15.20
2017-06-10T02:07:28.994Z,15.20
2017-06-10T02:09:55.260Z,15.10
2017-06-10T02:12:21.508Z,15.10
2017-06-10T02:14:47.781Z,15.20
2017-06-10T02:17:14.025Z,15.30
2017-06-10T02:19:40.669Z,15.10
2017-06-10T02:22:07.313Z,15.00
2017-06-10T02:24:33.972Z,15.00
2017-06-10T02:27:00.369Z,15.00
2017-06-10T02:29:27.019Z,14.90
2017-06-10T02:31:53.654Z,14.90
2017-06-10T02:34:20.267Z,15.00
2017-06-10T02:36:46.537Z,15.00
2017-06-10T02:39:12.813Z,15.10
2017-06-10T02:41:39.468Z,15.10
2017-06-10T02:44:05.713Z,15.20
2017-06-10T02:46:31.949Z,15.20
2017-06-10T02:48:58.239Z,15.00
2017-06-10T02:51:24.480Z,15.00
2017-06-10T02:53:50.740Z,15.00
2017-06-10T02:56:16.989Z,14.80
2017-06-10T02:58:43.682Z,14.70
2017-06-10T03:01:09.951Z,14.70
2017-06-10T03:03:36.193Z,14.70
2017-06-10T03:06:02.470Z,14.60
2017-06-10T03:08:28.736Z,14.50
2017-06-10T03:10:55.021Z,14.70
2017-06-10T03:13:21.272Z,14.60
2017-06-10T03:15:47.544Z,14.60
2017-06-10T03:18:13.821Z,14.70
2017-06-10T03:20:40.477Z,14.50
2017-06-10T03:23:06.754Z,14.50
2017-06-10T03:25:33.118Z,14.50
2017-06-10T03:27:59.764Z,14.70
2017-06-10T03:30:26.033Z,14.70
2017-06-10T03:32:52.305Z,14.70
2017-06-10T03:35:19.393Z,14.70
2017-06-10T03:37:45.690Z,14.50
2017-06-10T03:40:12.336Z,14.40
2017-06-10T03:42:38.610Z,14.40
2017-06-10T03:45:04.870Z,14.40
2017-06-10T03:47:31.149Z,14.20
2017-06-10T03:49:57.421Z,14.00
2017-06-10T03:52:23.711Z,14.00
2017-06-10T03:54:49.989Z,14.10
2017-06-10T03:57:16.248Z,14.20
2017-06-10T03:59:42.524Z,14.30
2017-06-10T04:02:08.794Z,14.50
2017-06-10T04:04:35.223Z,14.50
2017-06-10T04:07:02.065Z,14.50
2017-06-10T04:09:28.699Z,14.40
2017-06-10T04:11:54.938Z,14.40
2017-06-10T04:14:21.562Z,14.30
2017-06-10T04:16:47.848Z,14.30
2017-06-10T04:19:14.094Z,14.30
2017-06-10T04:21:40.362Z,14.20
2017-06-10T04:24:06.612Z,14.30
2017-06-10T04:26:32.910Z,14.10
2017-06-10T04:28:59.164Z,14.20
2017-06-10T04:31:25.413Z,14.30
2017-06-10T04:33:51.677Z,14.40
2017-06-10T04:36:17.925Z,14.60
2017-06-10T04:38:44.199Z,14.60
2017-06-10T04:41:10.441Z,14.60
2017-06-10T04:43:36.733Z,14.80
2017-06-10T04:46:03.001Z,15.00
2017-06-10T04:48:29.238Z,15.00
2017-06-10T04:50:55.506Z,14.90
2017-06-10T04:53:21.748Z,15.10
2017-06-10T04:55:48.017Z,15.30
2017-06-10T04:58:14.261Z,15.40
2017-06-10T05:00:40.809Z,15.50
2017-06-10T05:03:07.046Z,15.50
2017-06-10T05:05:33.378Z,15.40
2017-06-10T05:07:59.676Z,15.40
2017-06-10T05:10:25.945Z,15.40
2017-06-10T05:12:52.576Z,15.30
2017-06-10T05:15:19.210Z,15.30
2017-06-10T05:17:45.646Z,15.40
2017-06-10T05:20:12.292Z,15.20
2017-06-10T05:22:38.534Z,15.20
2017-06-10T05:25:04.813Z,15.30
2017-06-10T05:27:31.062Z,15.40
2017-06-10T05:29:57.341Z,15.20
2017-06-10T05:32:23.647Z,15.10
2017-06-10T05:34:49.901Z,15.10
2017-06-10T05:37:16.183Z,15.30
2017-06-10T05:39:42.415Z,15.50
2017-06-10T05:42:08.892Z,15.40
2017-06-10T05:44:36.018Z,15.40
2017-06-10T05:47:02.269Z,15.40
2017-06-10T05:49:28.536Z,15.40
2017-06-10T05:51:54.785Z,15.40
2017-06-10T05:54:21.065Z,15.40
2017-06-10T05:56:47.333Z,15.40
2017-06-10T05:59:13.641Z,15.40
2017-06-10T06:01:39.899Z,15.50
2017-06-10T06:04:06.161Z,15.70
2017-06-10T06:06:32.428Z,15.90
2017-06-10T06:08:58.713Z,15.90
2017-06-10T06:11:24.995Z,16.10
2017-06-10T06:13:51.277Z,16.10
2017-06-10T06:16:17.783Z,16.20
2017-06-10T06:18:44.418Z,16.50
2017-06-10T06:21:11.050Z,16.60
2017-06-10T06:23:37.313Z,16.50
2017-06-10T06:26:03.715Z,16.60
2017-06-10T06:28:30.148Z,16.70
2017-06-10T06:30:57.211Z,16.90
2017-06-10T06:33:24.132Z,17.00
2017-06-10T06:35:50.380Z,17.00
2017-06-10T06:38:16.632Z,17.00
2017-06-10T06:40:42.912Z,17.00
2017-06-10T06:43:09.173Z,17.00
2017-06-10T06:45:35.588Z,17.10
2017-06-10T06:48:02.223Z,17.20
2017-06-10T06:50:28.880Z,17.30
2017-06-10T06:52:55.158Z,17.30
2017-06-10T06:55:21.414Z,17.40
2017-06-10T06:57:47.750Z,17.50
2017-06-10T07:00:14.393Z,17.80
2017-06-10T07:02:41.059Z,17.90
2017-06-10T07:05:07.308Z,17.90
2017-06-10T07:07:33.849Z,18.00
2017-06-10T07:10:00.142Z,18.00
2017-06-10T07:12:26.390Z,18.00
2017-06-10T07:14:52.696Z,18.10
2017-06-10T07:17:18.961Z,18.30
2017-06-10T07:19:45.713Z,18.40
2017-06-10T07:22:11.976Z,18.50
2017-06-10T07:24:38.273Z,18.60
2017-06-10T07:27:04.589Z,18.60
2017-06-10T07:29:30.850Z,18.60
2017-06-10T07:31:57.120Z,18.70
2017-06-10T07:34:23.394Z,18.80
2017-06-10T07:36:49.697Z,18.80
2017-06-10T07:39:15.944Z,19.00
2017-06-10T07:41:42.240Z,19.10
2017-06-10T07:44:08.508Z,19.20
2017-06-10T07:46:34.796Z,19.30
2017-06-10T07:49:01.069Z,19.40
2017-06-10T07:51:27.344Z,19.40
2017-06-10T07:53:53.616Z,19.60
2017-06-10T07:56:19.918Z,19.70
2017-06-10T07:58:46.185Z,19.90
2017-06-10T08:01:12.517Z,20.00
2017-06-10T08:03:38.799Z,20.10
2017-06-10T08:06:05.496Z,20.20
2017-06-10T08:08:31.809Z,20.30
2017-06-10T08:10:58.058Z,20.40
2017-06-10T08:13:24.325Z,20.40
2017-06-10T08:15:50.585Z,20.40
2017-06-10T08:18:16.881Z,20.50
2017-06-10T08:20:43.144Z,20.60
2017-06-10T08:23:10.006Z,20.80
2017-06-10T08:25:36.261Z,20.90
2017-06-10T08:28:02.886Z,21.20
2017-06-10T08:30:29.149Z,21.20
2017-06-10T08:32:55.557Z,21.30
2017-06-10T08:35:22.211Z,21.30
2017-06-10T08:37:48.472Z,21.40
2017-06-10T08:40:15.075Z,21.10
2017-06-10T08:42:41.367Z,21.20
2017-06-10T08:45:07.621Z,21.20
2017-06-10T08:47:33.913Z,21.30
2017-06-10T08:50:00.170Z,21.40
2017-06-10T08:52:26.448Z,21.50
2017-06-10T08:54:52.688Z,21.60
2017-06-10T08:57:19.193Z,22.00
2017-06-10T08:59:45.459Z,22.00
2017-06-10T09:02:11.748Z,22.00
2017-06-10T09:04:38.038Z,21.80
2017-06-10T09:07:04.329Z,21.80
2017-06-10T09:09:30.654Z,21.60
2017-06-10T09:11:56.921Z,21.80
2017-06-10T09:14:23.192Z,21.90
2017-06-10T09:16:49.464Z,22.10
2017-06-10T09:19:15.937Z,22.30
2017-06-10T09:21:42.777Z,22.90
2017-06-10T09:24:09.392Z,22.80
2017-06-10T09:26:35.685Z,22.80
2017-06-10T09:29:01.941Z,22.60
2017-06-10T09:31:28.484Z,22.80
2017-06-10T09:33:54.742Z,22.90
2017-06-10T09:36:21.384Z,23.10
2017-06-10T09:38:48.062Z,23.20
2017-06-10T09:41:14.321Z,23.20
2017-06-10T09:43:40.596Z,23.50
2017-06-10T09:46:06.865Z,23.70
2017-06-10T09:48:33.129Z,23.70
2017-06-10T09:50:59.780Z,23.50
2017-06-10T09:53:26.409Z,23.50
2017-06-10T09:55:52.729Z,23.50
2017-06-10T09:58:18.997Z,23.40
2017-06-10T10:00:45.594Z,23.60
2017-06-10T10:03:11.865Z,23.50
2017-06-10T10:05:38.170Z,23.30
2017-06-10T10:08:04.457Z,23.40
2017-06-10T10:10:30.708Z,23.60
2017-06-10T10:12:57.328Z,23.90
2017-06-10T10:15:33.045Z,23.90
2017-06-10T10:18:09.465Z,23.80
2017-06-10T10:20:36.695Z,23.70
2017-06-10T10:23:03.051Z,23.60
2017-06-10T10:25:29.728Z,23.90
2017-06-10T10:27:56.005Z,23.90
2017-06-10T10:30:22.276Z,24.20
2017-06-10T10:32:48.537Z,24.40
2017-06-10T10:35:14.797Z,24.60
2017-06-10T10:37:41.058Z,24.80
2017-06-10T10:40:07.297Z,25.00
2017-06-10T10:42:33.558Z,25.10
2017-06-10T10:44:59.815Z,25.40
2017-06-10T10:47:26.095Z,25.40
2017-06-10T10:49:52.410Z,25.20
2017-06-10T10:52:18.671Z,25.00
2017-06-10T10:54:45.038Z,24.90
2017-06-10T10:57:11.289Z,24.70
2017-06-10T10:59:37.569Z,24.60
2017-06-10T11:02:03.836Z,24.90
2017-06-10T11:04:30.100Z,25.00
2017-06-10T11:06:56.380Z,25.40
2017-06-10T11:09:22.818Z,25.80
2017-06-10T11:11:49.473Z,26.10
2017-06-10T11:14:15.728Z,26.10
2017-06-10T11:16:41.997Z,26.20
2017-06-10T11:19:08.268Z,26.40
2017-06-10T11:21:34.548Z,26.60
2017-06-10T11:24:00.824Z,27.20
2017-06-10T11:26:27.056Z,27.40
2017-06-10T11:28:53.465Z,27.60
2017-06-10T11:31:20.105Z,26.90
2017-06-10T11:33:46.839Z,27.00
2017-06-10T11:36:13.168Z,27.00
2017-06-10T11:38:39.483Z,27.30
2017-06-10T11:41:05.788Z,27.40
2017-06-10T11:43:32.072Z,27.70
2017-06-10T11:45:58.729Z,27.80
2017-06-10T11:48:24.985Z,27.80
2017-06-10T11:50:51.650Z,28.10
2017-06-10T11:53:17.900Z,28.40
2017-06-10T11:55:44.212Z,28.80
2017-06-10T11:58:10.489Z,28.90
2017-06-10T12:00:36.752Z,28.60
2017-06-10T12:03:03.048Z,28.60
2017-06-10T12:05:29.323Z,28.80
2017-06-10T12:07:57.369Z,28.50
2017-06-10T12:10:23.689Z,28.50
2017-06-10T12:12:49.988Z,28.30
2017-06-10T12:15:16.288Z,28.40
2017-06-10T12:17:42.589Z,28.70
2017-06-10T12:20:08.965Z,29.10
2017-06-10T12:22:35.626Z,29.80
2017-06-10T12:25:02.337Z,29.80
2017-06-10T12:27:28.605Z,29.90
2017-06-10T12:29:54.882Z,30.10
2017-06-10T12:32:21.166Z,30.50
2017-06-10T12:34:47.417Z,31.20
2017-06-10T12:37:13.703Z,31.70
2017-06-10T12:39:40.009Z,31.50
2017-06-10T12:42:06.669Z,30.60
2017-06-10T12:44:32.967Z,30.60
2017-06-10T12:46:59.261Z,31.20
2017-06-10T12:49:25.543Z,32.00
2017-06-10T12:51:52.209Z,34.30
2017-06-10T12:54:18.529Z,34.40
2017-06-10T12:56:44.769Z,35.10
2017-06-10T12:59:11.033Z,35.90
2017-06-10T13:01:37.333Z,36.40
2017-06-10T13:04:03.596Z,36.60
2017-06-10T13:06:29.885Z,37.20
2017-06-10T13:08:56.198Z,37.60
2017-06-10T13:11:22.864Z,37.20
2017-06-10T13:13:49.141Z,37.20
2017-06-10T13:16:15.399Z,37.00
2017-06-10T13:18:41.676Z,36.90
2017-06-10T13:21:07.949Z,37.40
2017-06-10T13:23:34.608Z,38.20
2017-06-10T13:26:00.892Z,38.20
2017-06-10T13:28:27.153Z,38.50
2017-06-10T13:30:53.427Z,39.10
2017-06-10T13:33:24.829Z,39.60
2017-06-10T13:35:51.821Z,39.90
2017-06-10T13:38:19.832Z,39.60
2017-06-10T13:40:48.952Z,39.90
2017-06-10T13:43:15.195Z,39.80
2017-06-10T13:45:41.464Z,39.60
2017-06-10T13:48:07.772Z,39.60
2017-06-10T13:50:34.042Z,40.00
2017-06-10T13:53:00.361Z,39.90
2017-06-10T13:55:27.003Z,40.60
2017-06-10T13:57:53.265Z,40.60
2017-06-10T14:00:21.080Z,41.40
2017-06-10T14:02:47.335Z,41.60
2017-06-10T14:05:14.488Z,40.10
2017-06-10T14:07:40.762Z,39.60
2017-06-10T14:10:07.616Z,39.40
2017-06-10T14:12:33.871Z,39.10
2017-06-10T14:15:00.632Z,37.90
2017-06-10T14:17:26.921Z,36.80
2017-06-10T14:19:53.188Z,36.60
2017-06-10T14:22:19.468Z,38.20
2017-06-10T14:24:45.736Z,39.10
2017-06-10T14:27:12.352Z,38.50
2017-06-10T14:29:38.601Z,36.90
2017-06-10T14:32:04.862Z,35.90
2017-06-10T14:34:31.151Z,37.30
2017-06-10T14:36:57.412Z,38.40
2017-06-10T14:39:23.704Z,39.60
2017-06-10T14:41:50.046Z,40.60
2017-06-10T14:44:16.707Z,41.50
2017-06-10T14:46:42.997Z,41.50
2017-06-10T14:49:09.260Z,41.90
2017-06-10T14:51:35.577Z,41.40
2017-06-10T14:54:02.193Z,41.00
2017-06-10T14:56:28.732Z,40.90
2017-06-10T14:58:54.979Z,40.80
2017-06-10T15:01:21.288Z,41.20
2017-06-10T15:03:47.581Z,41.50
2017-06-10T15:06:13.925Z,42.00
2017-06-10T15:08:40.220Z,41.70
2017-06-10T15:11:06.512Z,41.60
2017-06-10T15:13:32.816Z,41.60
2017-06-10T15:15:59.105Z,41.20
2017-06-10T15:18:25.513Z,41.00
2017-06-10T15:20:52.152Z,42.40
2017-06-10T15:23:18.395Z,42.40
2017-06-10T15:25:45.049Z,42.90
2017-06-10T15:28:11.449Z,42.90
2017-06-10T15:30:38.176Z,43.30
2017-06-10T15:33:04.450Z,44.10
2017-06-10T15:35:30.707Z,44.20
2017-06-10T15:37:57.596Z,43.70
2017-06-10T15:40:24.222Z,42.20
2017-06-10T15:42:50.493Z,42.20
2017-06-10T15:45:16.758Z,42.00
2017-06-10T15:47:43.408Z,41.60
2017-06-10T15:50:09.753Z,42.00
2017-06-10T15:52:36.391Z,41.80
2017-06-10T15:55:03.044Z,41.00
2017-06-10T15:57:29.324Z,41.10
2017-06-10T15:59:55.640Z,41.30
2017-06-10T16:02:21.953Z,41.10
2017-06-10T16:04:48.640Z,40.20
2017-06-10T16:07:14.894Z,40.10
2017-06-10T16:09:41.215Z,39.80
2017-06-10T16:12:07.524Z,40.10
2017-06-10T16:14:33.785Z,40.20
2017-06-10T16:17:00.053Z,40.30
2017-06-10T16:19:26.322Z,40.50
2017-06-10T16:21:52.765Z,40.50
2017-06-10T16:24:19.019Z,40.20
2017-06-10T16:26:45.289Z,39.80
2017-06-10T16:29:11.599Z,39.70
2017-06-10T16:31:37.881Z,39.60
2017-06-10T16:34:04.177Z,38.40
2017-06-10T16:36:31.436Z,36.30
2017-06-10T16:38:58.080Z,35.20
2017-06-10T16:41:24.333Z,35.80
2017-06-10T16:43:50.664Z,36.20
2017-06-10T16:46:17.294Z,37.10
2017-06-10T16:48:44.540Z,37.10
2017-06-10T16:51:10.818Z,38.00
2017-06-10T16:53:37.090Z,38.20
2017-06-10T16:56:03.737Z,38.80
2017-06-10T16:58:30.005Z,39.70
2017-06-10T17:00:56.284Z,39.60
2017-06-10T17:03:22.581Z,40.10
2017-06-10T17:05:48.853Z,39.40
2017-06-10T17:08:15.149Z,37.40
2017-06-10T17:10:41.423Z,35.10
2017-06-10T17:13:08.368Z,31.90
2017-06-10T17:15:34.617Z,31.90
2017-06-10T17:18:00.893Z,31.00
2017-06-10T17:20:27.363Z,30.30
2017-06-10T17:22:54.011Z,29.20
2017-06-10T17:25:20.705Z,28.90
2017-06-10T17:27:47.045Z,28.90
2017-06-10T17:30:13.286Z,28.50
2017-06-10T17:32:39.725Z,28.00
2017-06-10T17:35:06.037Z,27.80
2017-06-10T17:37:32.353Z,27.40
2017-06-10T17:39:58.601Z,27.30
2017-06-10T17:42:24.882Z,27.20
2017-06-10T17:44:51.175Z,27.00
2017-06-10T17:47:17.444Z,26.80
2017-06-10T17:49:44.024Z,26.50
2017-06-10T17:52:10.295Z,26.20
2017-06-10T17:54:36.595Z,26.00
2017-06-10T17:57:03.033Z,25.80
2017-06-10T17:59:29.644Z,25.60
2017-06-10T18:01:55.933Z,25.60
2017-06-10T18:04:22.328Z,25.70
2017-06-10T18:06:48.584Z,25.60
2017-06-10T18:09:14.885Z,26.10
2017-06-10T18:11:41.217Z,27.40
2017-06-10T18:14:08.176Z,30.30
2017-06-10T18:16:34.490Z,30.30
2017-06-10T18:19:01.021Z,31.30
2017-06-10T18:21:27.357Z,31.20
2017-06-10T18:23:53.994Z,28.90
2017-06-10T18:26:20.838Z,27.80
2017-06-10T18:28:47.168Z,27.90
2017-06-10T18:31:13.504Z,26.90
2017-06-10T18:33:40.207Z,25.70
2017-06-10T18:36:06.867Z,25.70
2017-06-10T18:38:33.215Z,25.30
2017-06-10T18:40:59.497Z,24.90
2017-06-10T18:43:25.841Z,24.70
2017-06-10T18:45:53.730Z,24.40
2017-06-10T18:48:20.058Z,24.20
2017-06-10T18:50:46.409Z,24.10
2017-06-10T18:53:13.237Z,23.70
2017-06-10T18:55:39.902Z,23.50
2017-06-10T18:58:06.210Z,23.50
2017-06-10T19:00:32.537Z,23.40
2017-06-10T19:02:58.885Z,23.20
2017-06-10T19:05:25.195Z,23.00
2017-06-10T19:07:52.248Z,22.70
2017-06-10T19:10:19.090Z,22.50
2017-06-10T19:12:45.768Z,22.40
2017-06-10T19:15:12.037Z,22.40
2017-06-10T19:17:38.318Z,22.20
2017-06-10T19:20:04.592Z,22.00
2017-06-10T19:22:30.930Z,21.80
2017-06-10T19:24:57.271Z,21.70
2017-06-10T19:27:23.929Z,21.40
2017-06-10T19:29:50.224Z,21.40
2017-06-10T19:32:16.537Z,21.30
2017-06-10T19:34:43.301Z,21.10
2017-06-10T19:37:09.614Z,21.00
2017-06-10T19:39:35.901Z,20.90
2017-06-10T19:42:02.204Z,20.80
2017-06-10T19:44:28.461Z,20.70
2017-06-10T19:46:54.790Z,20.60
2017-06-10T19:49:21.093Z,20.50
2017-06-10T19:51:48.425Z,20.40
2017-06-10T19:54:15.315Z,20.40
2017-06-10T19:56:41.581Z,20.30
2017-06-10T19:59:07.885Z,20.30
2017-06-10T20:01:34.379Z,20.20
2017-06-10T20:04:00.705Z,20.10
2017-06-10T20:06:26.996Z,20.00
2017-06-10T20:08:53.318Z,20.00
2017-06-10T20:11:19.689Z,19.80
2017-06-10T20:13:46.965Z,19.70
2017-06-10T20:16:13.654Z,19.60
2017-06-10T20:18:40.016Z,19.60
2017-06-10T20:21:06.486Z,19.60
2017-06-10T20:23:32.785Z,19.50
2017-06-10T20:25:59.424Z,19.50
2017-06-10T20:28:26.327Z,19.50
2017-06-10T20:30:52.610Z,19.30
2017-06-10T20:33:18.934Z,19.30
2017-06-10T20:35:45.255Z,19.20
2017-06-10T20:38:11.942Z,19.00
2017-06-10T20:40:38.242Z,19.00
2017-06-10T20:43:04.857Z,19.00
2017-06-10T20:45:31.125Z,19.00
2017-06-10T20:48:00.201Z,19.00
2017-06-10T20:50:27.505Z,18.90
2017-06-10T20:52:54.807Z,18.90
2017-06-10T20:55:21.142Z,18.80
2017-06-10T20:57:48.496Z,18.80
2017-06-10T21:00:14.845Z,18.70
2017-06-10T21:02:42.371Z,18.70
2017-06-10T21:05:08.649Z,18.60
2017-06-10T21:07:34.937Z,18.50
2017-06-10T21:10:01.206Z,18.50
2017-06-10T21:12:28.817Z,18.40
2017-06-10T21:14:56.687Z,18.30
2017-06-10T21:17:23.698Z,18.20
2017-06-10T21:19:49.992Z,18.10
2017-06-10T21:22:16.491Z,18.10
2017-06-10T21:24:42.802Z,18.00
2017-06-10T21:27:09.091Z,18.00
2017-06-10T21:29:35.384Z,17.90
2017-06-10T21:32:02.071Z,17.90
2017-06-10T21:34:28.451Z,17.90
2017-06-10T21:36:55.132Z,17.80
2017-06-10T21:39:21.401Z,17.80
2017-06-10T21:41:47.709Z,17.80
2017-06-10T21:44:14.182Z,17.70
2017-06-10T21:46:40.476Z,17.60
2017-06-10T21:49:06.745Z,17.60
2017-06-10T21:51:33.064Z,17.70
2017-06-10T21:53:59.722Z,17.60
2017-06-10T21:56:25.977Z,17.60
2017-06-10T21:58:52.286Z,17.60
2017-06-10T22:01:18.555Z,17.50
2017-06-10T22:03:45.029Z,17.40
2017-06-10T22:06:11.662Z,17.30
2017-06-10T22:08:37.966Z,17.30
2017-06-10T22:11:04.293Z,17.40
2017-06-10T22:13:30.577Z,17.30
2017-06-10T22:15:56.853Z,17.20
2017-06-10T22:18:23.122Z,17.10
2017-06-10T22:20:49.453Z,17.10
2017-06-10T22:23:15.720Z,17.10
2017-06-10T22:25:41.954Z,17.10
2017-06-10T22:28:08.233Z,17.10
2017-06-10T22:30:34.500Z,17.00
2017-06-10T22:33:00.788Z,17.00
2017-06-10T22:35:27.632Z,16.90
2017-06-10T22:37:54.257Z,16.90
2017-06-10T22:40:20.520Z,16.90
2017-06-10T22:42:46.769Z,16.90
2017-06-10T22:45:13.066Z,16.80
2017-06-10T22:47:39.319Z,16.80
2017-06-10T22:50:05.572Z,16.80
2017-06-10T22:52:31.862Z,16.70
2017-06-10T22:54:58.100Z,16.70
2017-06-10T22:57:24.369Z,16.70
2017-06-10T22:59:50.608Z,16.60
2017-06-10T23:02:16.880Z,16.60
2017-06-10T23:04:43.190Z,16.50
2017-06-10T23:07:09.814Z,16.50
2017-06-10T23:09:36.088Z,16.50
2017-06-10T23:12:02.373Z,16.50
2017-06-10T23:14:28.653Z,16.50
2017-06-10T23:16:54.928Z,16.40
2017-06-10T23:19:21.185Z,16.40
2017-06-10T23:21:47.829Z,16.30
2017-06-10T23:24:14.061Z,16.30
2017-06-10T23:26:40.353Z,16.40
2017-06-10T23:29:06.642Z,16.40
2017-06-10T23:31:33.127Z,16.40
2017-06-10T23:33:59.743Z,16.20
2017-06-10T23:36:26.013Z,16.20
2017-06-10T23:38:52.257Z,16.10
2017-06-10T23:41:18.513Z,16.00
2017-06-10T23:43:44.804Z,16.00
2017-06-10T23:46:11.061Z,16.00
2017-06-10T23:48:37.342Z,15.90
2017-06-10T23:51:03.772Z,15.90
2017-06-10T23:53:30.389Z,15.80
2017-06-10T23:55:56.840Z,15.80
2017-06-10T23:58:23.457Z,15.70
